Time;durP1;ratioP1;P1;durP2;ratioP2;P2;SDS_P1;SDS_P2;PMS_P1;PMS_P2;Temp;Humidity;BMP_temperature;BMP_pressure;BME280_temperature;BME280_humidity;BME280_pressure;Samples;Min_cycle;Max_cycle;Signal;HPM_P1;HPM_P2
2023/03/21 00:00:54;;;;;;;6.32;2.60;;;;;;;10.51;41.03;101342.91;5033472;28;20037;-73
2023/03/21 00:03:22;;;;;;;5.47;2.50;;;;;;;10.47;41.49;101333.22;5034969;28;20041;-73
2023/03/21 00:05:52;;;;;;;6.00;2.67;;;;;;;10.49;41.30;101343.03;5037012;28;20287;-73
2023/03/21 00:08:21;;;;;;;5.75;2.80;;;;;;;10.50;41.64;101338.44;5033447;28;20044;-73
2023/03/21 00:10:55;;;;;;;5.60;2.47;;;;;;;10.52;41.59;101331.00;5028470;28;20514;-73
2023/03/21 00:13:25;;;;;;;5.15;2.45;;;;;;;10.49;41.35;101328.47;5027358;28;20045;-73
2023/03/21 00:15:54;;;;;;;4.55;2.58;;;;;;;10.49;41.51;101323.00;5045408;28;20508;-73
2023/03/21 00:18:40;;;;;;;5.18;2.17;;;;;;;10.49;41.41;101320.28;5040978;28;20132;-73
2023/03/21 00:21:14;;;;;;;5.88;3.28;;;;;;;10.50;41.10;101314.69;5031328;28;20064;-73
2023/03/21 00:24:02;;;;;;;6.40;2.88;;;;;;;10.45;41.20;101311.47;5040588;28;20050;-73
2023/03/21 00:26:31;;;;;;;4.93;2.53;;;;;;;10.49;41.25;101318.41;5042457;28;20127;-73
2023/03/21 00:28:59;;;;;;;5.72;2.78;;;;;;;10.48;41.36;101313.94;5037163;28;20515;-73
2023/03/21 00:31:27;;;;;;;5.22;2.63;;;;;;;10.48;41.32;101305.72;5043432;28;20098;-74
2023/03/21 00:33:55;;;;;;;6.35;2.80;;;;;;;10.48;41.36;101311.19;5036561;28;20511;-73
2023/03/21 00:36:24;;;;;;;6.07;2.67;;;;;;;10.47;41.26;101304.00;5040495;28;20056;-74
2023/03/21 00:38:52;;;;;;;4.78;2.60;;;;;;;10.47;41.51;101301.28;5042055;28;20049;-73
2023/03/21 00:41:20;;;;;;;6.45;2.63;;;;;;;10.47;41.51;101298.53;5037584;28;20037;-73
2023/03/21 00:44:10;;;;;;;7.72;3.25;;;;;;;10.48;41.39;101296.66;5037730;28;20099;-73
2023/03/21 00:46:38;;;;;;;6.18;2.72;;;;;;;10.48;41.59;101299.41;5031570;28;20045;-73
2023/03/21 00:49:19;;;;;;;5.57;2.40;;;;;;;10.47;41.37;101295.78;5043184;28;20040;-73
2023/03/21 00:51:50;;;;;;;7.00;2.65;;;;;;;10.48;40.97;101293.94;5038270;28;20041;-73
2023/03/21 00:54:18;;;;;;;5.70;2.63;;;;;;;10.48;41.21;101289.31;5047572;28;20116;-73
2023/03/21 00:56:46;;;;;;;6.45;2.70;;;;;;;10.48;41.39;101288.47;5040073;28;20055;-73
2023/03/21 00:59:16;;;;;;;5.30;2.90;;;;;;;10.49;41.88;101279.22;5037103;28;20496;-73
2023/03/21 01:01:45;;;;;;;6.57;3.40;;;;;;;10.48;41.74;101286.56;5036944;28;20416;-73
2023/03/21 01:04:15;;;;;;;6.65;3.08;;;;;;;10.48;41.59;101278.34;5035328;28;20049;-74
2023/03/21 01:06:44;;;;;;;5.43;3.10;;;;;;;10.49;41.64;101281.97;5042752;28;20041;-73
2023/03/21 01:09:15;;;;;;;6.47;2.72;;;;;;;10.49;41.96;101279.22;5038611;28;20041;-73
2023/03/21 01:11:43;;;;;;;5.90;2.88;;;;;;;10.49;41.88;101276.50;5032192;28;20136;-73
2023/03/21 01:14:12;;;;;;;5.68;3.17;;;;;;;10.50;41.92;101286.44;5044324;28;20048;-73
2023/03/21 01:16:57;;;;;;;6.97;3.17;;;;;;;10.49;41.92;101277.38;5037992;28;20136;-73
2023/03/21 01:19:27;;;;;;;5.18;3.22;;;;;;;10.49;41.75;101280.09;5031692;28;20046;-73
2023/03/21 01:22:15;;;;;;;6.07;3.10;;;;;;;10.48;41.66;101274.78;5042785;28;20080;-73
2023/03/21 01:24:43;;;;;;;5.47;2.80;;;;;;;10.48;41.51;101272.03;5039754;28;20578;-73
2023/03/21 01:27:21;;;;;;;5.72;3.05;;;;;;;10.47;41.77;101273.91;5038244;28;20087;-73
2023/03/21 01:29:49;;;;;;;6.07;3.00;;;;;;;10.50;41.50;101267.28;5033732;28;20587;-73
2023/03/21 01:32:18;;;;;;;6.93;3.33;;;;;;;10.50;41.65;101267.28;5041046;28;20033;-73
2023/03/21 01:34:46;;;;;;;8.60;3.40;;;;;;;10.48;41.69;101264.66;5042530;28;20374;-73
2023/03/21 01:37:16;;;;;;;7.38;3.38;;;;;;;10.49;42.17;101257.34;5041164;28;20065;-73
2023/03/21 01:39:47;;;;;;;6.80;3.47;;;;;;;10.48;41.66;101261.09;5043850;28;20135;-73
2023/03/21 01:42:15;;;;;;;7.50;3.60;;;;;;;10.48;42.22;101261.09;5035921;28;20484;-73
2023/03/21 01:44:57;;;;;;;6.78;3.50;;;;;;;10.49;42.15;101266.41;5040745;28;20107;-73
2023/03/21 01:47:34;;;;;;;6.10;3.50;;;;;;;10.48;42.24;101261.09;5044573;28;20187;-73
2023/03/21 01:50:08;;;;;;;6.85;3.20;;;;;;;10.47;42.11;101264.81;5036075;28;20051;-73
2023/03/21 01:52:48;;;;;;;6.03;3.58;;;;;;;10.46;42.13;101258.47;5037486;28;20042;-73
2023/03/21 01:55:24;;;;;;;6.03;3.53;;;;;;;10.46;41.96;101258.47;5040997;28;21965;-73
2023/03/21 01:57:57;;;;;;;6.60;3.47;;;;;;;10.46;41.85;101254.88;5041221;28;20119;-73
2023/03/21 02:00:50;;;;;;;6.38;3.15;;;;;;;10.46;42.28;101254.88;5030839;28;20052;-73
2023/03/21 02:03:36;;;;;;;5.60;3.27;;;;;;;10.45;42.27;101251.25;5043873;28;20172;-73
2023/03/21 02:06:23;;;;;;;6.43;3.40;;;;;;;10.47;42.33;101252.00;5041034;28;20131;-73
2023/03/21 02:09:00;;;;;;;5.45;3.35;;;;;;;10.47;42.51;101246.53;5031644;28;20041;-74
2023/03/21 02:11:31;;;;;;;6.05;3.20;;;;;;;10.44;42.78;101241.31;5042080;28;20459;-72
2023/03/21 02:13:59;;;;;;;5.68;3.53;;;;;;;10.46;42.50;101246.66;5041008;28;20659;-73
2023/03/21 02:16:59;;;;;;;6.53;3.65;;;;;;;10.46;42.55;101239.31;5037160;28;20144;-74
2023/03/21 02:20:20;;;;;;;7.38;3.38;;;;;;;10.43;43.06;101238.69;5040415;28;20549;-74
2023/03/21 02:23:28;;;;;;;7.72;3.20;;;;;;;10.40;43.02;101226.09;5016248;28;20053;-73
2023/03/21 02:26:15;;;;;;;8.70;3.55;;;;;;;10.45;42.87;101218.41;5013033;28;20053;-73
2023/03/21 02:28:48;;;;;;;6.85;3.55;;;;;;;10.46;43.07;101211.97;5039641;28;20073;-73
2023/03/21 02:31:31;;;;;;;6.07;3.83;;;;;;;10.45;42.75;101204.75;5033818;28;20046;-73
2023/03/21 02:34:36;;;;;;;7.80;3.97;;;;;;;10.43;42.96;101212.19;5027662;28;20378;-74
2023/03/21 02:37:16;;;;;;;7.13;3.40;;;;;;;10.43;43.06;101206.72;5039478;28;20570;-73
2023/03/21 02:40:06;;;;;;;8.30;4.05;;;;;;;10.44;43.09;101203.00;5035139;28;20045;-73
2023/03/21 02:42:44;;;;;;;7.90;3.40;;;;;;;10.43;42.82;101201.25;5039843;28;20072;-73
2023/03/21 02:45:28;;;;;;;6.43;3.33;;;;;;;10.42;42.77;101207.72;5040068;28;20852;-73
2023/03/21 02:48:03;;;;;;;7.80;3.85;;;;;;;10.44;42.90;101202.13;5043623;28;20144;-73
2023/03/21 02:50:37;;;;;;;6.60;4.00;;;;;;;10.44;42.75;101200.25;5034424;28;20111;-73
2023/03/21 02:53:08;;;;;;;;;;;;;;;10.17;43.41;101195.16;5032649;28;20054;-74
2023/03/21 02:55:39;;;;;;;5.18;3.25;;;;;;;10.38;43.27;101195.28;5039890;28;19925;-73
2023/03/21 02:58:11;;;;;;;6.65;3.08;;;;;;;10.42;43.00;101196.78;5041806;28;20080;-73
2023/03/21 03:00:49;;;;;;;6.60;3.75;;;;;;;10.41;43.32;101196.88;5041655;28;20049;-73
2023/03/21 03:03:33;;;;;;;5.47;3.50;;;;;;;10.41;42.76;101195.03;5043326;28;20088;-73
2023/03/21 03:06:11;;;;;;;7.07;3.30;;;;;;;10.41;42.88;101196.88;5044175;28;20053;-73
2023/03/21 03:08:52;;;;;;;6.78;3.15;;;;;;;10.42;43.18;101196.78;5030889;28;20512;-73
2023/03/21 03:11:33;;;;;;;8.25;3.33;;;;;;;10.42;43.31;101187.69;5029599;28;20041;-74
2023/03/21 03:14:21;;;;;;;6.50;3.30;;;;;;;10.42;43.51;101195.91;5042115;28;20037;-73
2023/03/21 03:17:20;;;;;;;7.75;3.58;;;;;;;10.42;43.30;101193.16;5043229;28;20076;-74
2023/03/21 03:20:09;;;;;;;7.45;3.40;;;;;;;10.42;43.56;101187.69;5032526;28;20045;-73
2023/03/21 03:22:51;;;;;;;8.80;3.90;;;;;;;10.41;43.34;101189.56;5060454;28;20522;-74
2023/03/21 03:25:24;;;;;;;6.38;3.60;;;;;;;10.41;43.14;101178.59;5034263;28;20494;-73
2023/03/21 03:28:11;;;;;;;7.65;4.05;;;;;;;10.40;43.31;101174.13;5044388;28;20049;-73
2023/03/21 03:30:40;;;;;;;7.35;3.40;;;;;;;10.41;43.36;101172.25;5041442;28;20044;-73
2023/03/21 03:33:28;;;;;;;6.28;3.00;;;;;;;10.40;43.24;101165.06;5042208;28;20045;-73
2023/03/21 03:35:59;;;;;;;8.65;3.72;;;;;;;10.41;43.29;101161.31;5043288;28;20044;-73
2023/03/21 03:38:37;;;;;;;5.65;3.35;;;;;;;10.42;43.61;101174.00;5041605;28;20511;-73
2023/03/21 03:41:11;;;;;;;7.35;3.50;;;;;;;10.43;43.15;101171.16;5040373;28;20411;-73
2023/03/21 03:43:52;;;;;;;5.47;3.25;;;;;;;10.41;43.05;101164.06;5032204;28;20037;-73
2023/03/21 03:46:28;;;;;;;6.75;3.40;;;;;;;10.42;43.89;101163.06;5034105;28;20415;-74
2023/03/21 03:49:00;;;;;;;5.85;3.15;;;;;;;10.41;43.43;101170.41;5032732;28;20052;-73
2023/03/21 03:51:34;;;;;;;6.47;4.10;;;;;;;10.40;43.49;101162.34;5032603;28;20057;-74
2023/03/21 03:54:27;;;;;;;6.85;3.33;;;;;;;10.39;43.22;101161.47;5051262;22;20100;-76
2023/03/21 03:56:58;;;;;;;5.97;3.13;;;;;;;10.40;43.21;101160.44;4999537;28;20088;-76
2023/03/21 03:59:26;;;;;;;5.65;3.53;;;;;;;10.39;43.46;101156.00;5003001;28;20148;-76
2023/03/21 04:02:12;;;;;;;7.00;3.70;;;;;;;10.37;43.24;101147.03;5024183;28;20534;-76
2023/03/21 04:04:41;;;;;;;7.88;3.78;;;;;;;10.39;43.60;101147.78;5004330;28;20132;-77
2023/03/21 04:07:10;;;;;;;6.72;3.55;;;;;;;10.39;43.77;101141.44;5005799;28;20054;-76
2023/03/21 04:09:39;;;;;;;5.72;3.45;;;;;;;10.39;43.31;101139.59;4998276;28;20493;-76
2023/03/21 04:12:16;;;;;;;6.05;3.47;;;;;;;10.40;43.32;101144.03;5001264;28;20053;-77
2023/03/21 04:15:00;;;;;;;8.73;3.65;;;;;;;10.38;43.61;101139.69;5014078;28;20157;-77
2023/03/21 04:17:39;;;;;;;6.40;3.53;;;;;;;10.39;43.63;101133.22;4999690;28;20275;-77
2023/03/21 04:20:08;;;;;;;9.85;4.00;;;;;;;10.39;43.54;101128.63;5002613;28;20046;-77
2023/03/21 04:22:43;;;;;;;7.20;3.70;;;;;;;10.37;43.05;101132.47;5006224;28;20042;-77
2023/03/21 04:25:12;;;;;;;6.68;3.47;;;;;;;10.37;43.47;101141.56;5006855;28;20037;-76
2023/03/21 04:27:56;;;;;;;5.55;3.55;;;;;;;10.36;43.46;101141.69;5004447;28;20137;-76
2023/03/21 04:30:36;;;;;;;5.72;3.25;;;;;;;10.35;43.10;101140.81;5004811;28;20719;-77
2023/03/21 04:33:16;;;;;;;7.07;3.53;;;;;;;10.35;43.17;101142.69;5001556;28;20129;-76
2023/03/21 04:35:54;;;;;;;8.00;3.25;;;;;;;10.34;43.59;101144.53;5006010;28;20054;-77
2023/03/21 04:38:29;;;;;;;8.45;3.83;;;;;;;10.35;43.17;101145.41;5004269;28;20042;-76
2023/03/21 04:41:01;;;;;;;7.18;3.20;;;;;;;10.35;43.54;101142.69;5004495;28;20057;-77
2023/03/21 04:43:31;;;;;;;7.32;3.58;;;;;;;10.35;43.05;101143.53;5004164;28;20046;-77
2023/03/21 04:45:59;;;;;;;7.10;3.30;;;;;;;10.34;43.55;101141.81;5005987;28;20058;-77
2023/03/21 04:48:27;;;;;;;6.00;3.15;;;;;;;10.33;43.53;101148.28;5005718;28;20050;-76
2023/03/21 04:50:56;;;;;;;5.53;3.33;;;;;;;10.33;43.16;101140.06;5009356;28;20061;-77
2023/03/21 04:53:24;;;;;;;4.90;3.05;;;;;;;10.34;43.15;101130.84;5006078;28;20045;-77
2023/03/21 04:55:52;;;;;;;7.50;3.58;;;;;;;10.34;43.46;101119.03;5009833;28;20144;-76
2023/03/21 04:58:22;;;;;;;7.00;3.95;;;;;;;10.32;43.22;101121.91;5014500;28;20045;-77
2023/03/21 05:00:52;;;;;;;7.00;3.47;;;;;;;10.35;43.26;101118.06;5016843;28;20057;-77
2023/03/21 05:03:20;;;;;;;7.05;3.65;;;;;;;10.32;43.42;101107.38;4998376;28;20054;-77
2023/03/21 05:05:49;;;;;;;9.88;3.95;;;;;;;10.32;43.33;101113.69;5013390;28;20650;-77
2023/03/21 05:08:18;;;;;;;9.27;3.92;;;;;;;10.32;43.37;101113.69;5009792;28;20046;-76
2023/03/21 05:10:46;;;;;;;5.38;3.15;;;;;;;10.31;43.24;101109.25;5005465;28;20080;-76
2023/03/21 05:13:14;;;;;;;6.18;3.42;;;;;;;10.31;43.60;101120.19;5008071;28;20046;-77
2023/03/21 05:15:42;;;;;;;6.80;3.38;;;;;;;10.31;43.24;101117.47;5009934;28;20440;-76
2023/03/21 05:18:12;;;;;;;6.22;3.70;;;;;;;10.32;43.23;101119.16;5009726;28;20042;-77
2023/03/21 05:20:56;;;;;;;7.65;3.58;;;;;;;10.30;43.18;101120.31;5004299;28;20046;-76
2023/03/21 05:23:25;;;;;;;6.18;3.33;;;;;;;10.30;43.75;101117.56;5009866;28;20113;-77
2023/03/21 05:25:53;;;;;;;7.03;3.42;;;;;;;10.31;43.67;101133.00;5003957;28;20058;-77
2023/03/21 05:28:35;;;;;;;6.55;3.20;;;;;;;10.30;43.92;101121.19;5013296;28;20065;-77
2023/03/21 05:31:04;;;;;;;6.15;3.25;;;;;;;10.31;43.78;101124.78;5009996;28;20074;-75
2023/03/21 05:33:34;;;;;;;5.63;3.25;;;;;;;10.33;43.53;101126.38;5007288;28;20061;-76
2023/03/21 05:36:02;;;;;;;6.15;3.13;;;;;;;10.31;43.60;101120.19;5009226;28;20475;-75
2023/03/21 05:38:32;;;;;;;6.68;3.47;;;;;;;10.31;43.58;101120.19;5009305;28;20057;-77
2023/03/21 05:41:00;;;;;;;6.35;3.58;;;;;;;10.32;44.08;101119.16;5003710;28;20054;-77
2023/03/21 05:43:28;;;;;;;7.43;3.35;;;;;;;10.32;44.30;101121.91;5003135;28;20058;-74
2023/03/21 05:45:56;;;;;;;6.13;3.47;;;;;;;10.33;44.14;101130.97;5005040;28;20053;-75
2023/03/21 05:48:24;;;;;;;7.03;3.88;;;;;;;10.33;44.20;101118.19;5004372;28;20104;-75
2023/03/21 05:51:08;;;;;;;6.95;3.30;;;;;;;10.34;44.03;101122.66;5004859;28;20065;-75
2023/03/21 05:53:36;;;;;;;6.85;3.45;;;;;;;10.33;44.35;101118.19;5008087;28;20038;-75
2023/03/21 05:56:05;;;;;;;6.95;3.45;;;;;;;10.33;43.91;101137.31;5008654;28;20447;-75
2023/03/21 05:58:45;;;;;;;7.63;3.60;;;;;;;10.32;44.36;101132.00;5005191;28;20073;-75
2023/03/21 06:01:14;;;;;;;6.28;3.03;;;;;;;10.34;44.42;101132.72;5006445;28;20046;-75
2023/03/21 06:03:48;;;;;;;6.90;3.40;;;;;;;10.32;44.25;101130.09;5018766;28;20456;-74
2023/03/21 06:06:19;;;;;;;6.80;3.63;;;;;;;10.32;44.30;101127.38;4996504;28;20077;-75
2023/03/21 06:08:59;;;;;;;5.90;3.40;;;;;;;10.31;44.70;101131.13;4985318;28;20884;-75
2023/03/21 06:11:31;;;;;;;6.85;3.40;;;;;;;10.32;44.62;101127.38;5001810;28;20322;-75
2023/03/21 06:14:34;;;;;;;5.80;3.20;;;;;;;10.28;44.74;101128.63;5014492;28;20596;-75
2023/03/21 06:17:16;;;;;;;6.72;3.35;;;;;;;10.29;44.83;101124.03;5010821;28;20060;-76
2023/03/21 06:19:49;;;;;;;6.00;3.25;;;;;;;10.28;44.65;101125.91;5012418;28;20041;-76
2023/03/21 06:22:24;;;;;;;9.02;3.50;;;;;;;10.30;44.92;101125.78;5000427;28;20152;-76
2023/03/21 06:24:52;;;;;;;6.25;3.50;;;;;;;10.28;44.68;101116.81;4993745;28;20096;-75
2023/03/21 06:27:20;;;;;;;7.60;3.22;;;;;;;10.28;44.73;101125.03;5018840;28;20406;-75
2023/03/21 06:29:51;;;;;;;5.20;3.20;;;;;;;10.27;45.02;101120.56;5018031;28;20045;-75
2023/03/21 06:32:20;;;;;;;7.35;3.70;;;;;;;10.26;45.14;101130.63;5011643;28;20049;-75
2023/03/21 06:34:51;;;;;;;6.43;3.60;;;;;;;10.27;45.08;101124.16;5004121;28;20456;-76
2023/03/21 06:37:20;;;;;;;5.72;3.30;;;;;;;10.26;45.35;101130.63;5010089;28;20034;-75
2023/03/21 06:39:49;;;;;;;7.07;3.25;;;;;;;10.27;44.75;101124.16;5004420;28;20633;-76
2023/03/21 06:42:19;;;;;;;6.45;3.40;;;;;;;10.24;45.18;101127.13;5010140;28;20835;-74
2023/03/21 06:44:48;;;;;;;8.10;3.83;;;;;;;10.25;45.16;101134.34;5006498;28;20060;-74
2023/03/21 06:47:16;;;;;;;5.50;3.30;;;;;;;10.24;44.70;101133.47;4989014;28;20549;-75
2023/03/21 06:49:45;;;;;;;6.32;3.28;;;;;;;10.24;45.07;101133.47;5012965;28;20498;-75
2023/03/21 06:52:13;;;;;;;6.05;3.65;;;;;;;10.24;45.15;101132.59;5015348;28;20045;-75
2023/03/21 06:54:42;;;;;;;5.75;3.53;;;;;;;10.24;45.01;101135.34;5005498;28;20045;-75
2023/03/21 06:57:13;;;;;;;6.93;3.70;;;;;;;10.26;45.47;101140.69;4998738;28;20065;-75
2023/03/21 06:59:41;;;;;;;8.43;3.58;;;;;;;10.24;45.27;101143.53;5005410;28;20042;-75
2023/03/21 07:02:13;;;;;;;5.93;3.60;;;;;;;10.22;45.28;101140.97;5005294;28;20540;-75
2023/03/21 07:04:48;;;;;;;6.00;3.60;;;;;;;10.24;45.54;101144.41;5006884;28;20120;-75
2023/03/21 07:07:19;;;;;;;5.50;3.50;;;;;;;10.26;45.58;101146.16;5007523;28;20056;-75
2023/03/21 07:09:47;;;;;;;8.35;4.72;;;;;;;10.25;45.67;101145.28;5011371;28;20049;-75
2023/03/21 07:12:17;;;;;;;7.18;3.97;;;;;;;10.28;45.28;101141.44;4990902;28;20487;-75
2023/03/21 07:15:08;;;;;;;7.22;3.78;;;;;;;10.27;45.44;101156.97;5000427;28;20065;-77
2023/03/21 07:17:37;;;;;;;6.07;3.35;;;;;;;10.23;45.50;101150.88;5009492;28;20049;-76
2023/03/21 07:20:07;;;;;;;6.03;3.40;;;;;;;10.27;45.49;101148.78;5013228;28;20049;-77
2023/03/21 07:22:35;;;;;;;6.38;3.20;;;;;;;10.27;45.78;101159.72;4987592;28;20118;-76
2023/03/21 07:25:04;;;;;;;7.53;3.42;;;;;;;10.28;45.42;101157.84;4990441;28;20070;-76
2023/03/21 07:27:40;;;;;;;6.50;3.08;;;;;;;10.29;45.82;101155.00;4999004;28;20041;-76
2023/03/21 07:30:10;;;;;;;6.63;3.60;;;;;;;10.27;45.56;101140.56;4991529;28;20061;-77
2023/03/21 07:32:39;;;;;;;6.15;3.45;;;;;;;10.28;45.34;101141.44;5002903;28;20046;-76
2023/03/21 07:35:10;;;;;;;6.75;3.38;;;;;;;10.29;45.90;101144.06;5005654;28;20080;-77
2023/03/21 07:37:38;;;;;;;8.63;3.40;;;;;;;10.28;45.97;101123.16;5009832;28;20049;-77
2023/03/21 07:40:09;;;;;;;6.82;3.40;;;;;;;10.28;45.59;101117.69;5007658;28;20564;-77
2023/03/21 07:42:40;;;;;;;6.30;3.38;;;;;;;10.29;46.17;101129.50;4979512;28;20572;-76
2023/03/21 07:45:13;;;;;;;7.13;3.53;;;;;;;10.24;46.07;101130.75;4992697;28;20506;-76
2023/03/21 07:47:42;;;;;;;7.30;3.70;;;;;;;10.24;46.23;101132.59;4996235;28;20042;-76
2023/03/21 07:50:11;;;;;;;5.78;3.50;;;;;;;10.27;45.85;101134.22;4983084;28;20043;-75
2023/03/21 07:52:39;;;;;;;9.63;4.32;;;;;;;10.26;46.11;101125.16;5001824;28;20535;-77
2023/03/21 07:55:07;;;;;;;6.90;3.90;;;;;;;10.27;45.98;101131.50;5008589;28;20048;-77
2023/03/21 07:57:35;;;;;;;7.13;3.50;;;;;;;10.26;46.69;101138.81;5010431;28;20069;-78
2023/03/21 08:00:06;;;;;;;6.63;3.55;;;;;;;10.27;46.99;101129.63;5013551;28;20050;-77
2023/03/21 08:02:42;;;;;;;6.53;3.53;;;;;;;10.24;46.64;101130.75;4977052;28;20047;-77
2023/03/21 08:05:10;;;;;;;6.50;3.90;;;;;;;10.24;46.91;101141.69;4985719;28;20042;-76
2023/03/21 08:07:38;;;;;;;5.95;3.08;;;;;;;10.26;46.73;101143.44;4987285;28;20782;-77
2023/03/21 08:10:09;;;;;;;7.65;3.55;;;;;;;10.27;46.80;101145.16;4978092;28;20057;-77
2023/03/21 08:12:37;;;;;;;9.05;3.80;;;;;;;10.25;47.01;101145.28;4992453;28;20097;-77
2023/03/21 08:15:08;;;;;;;6.55;3.45;;;;;;;10.29;47.12;101151.41;4993012;28;20038;-76
2023/03/21 08:17:38;;;;;;;6.38;3.35;;;;;;;10.27;47.11;101147.91;4985423;28;20070;-75
2023/03/21 08:20:09;;;;;;;7.22;3.65;;;;;;;10.28;47.11;101146.91;4983641;28;20505;-76
2023/03/21 08:22:37;;;;;;;7.63;3.85;;;;;;;10.28;47.30;101141.44;4990354;28;20048;-76
2023/03/21 08:25:06;;;;;;;7.03;3.70;;;;;;;10.29;47.26;101145.94;4986343;28;20577;-76
2023/03/21 08:27:35;;;;;;;8.30;3.78;;;;;;;10.29;47.60;101144.06;4981940;28;20045;-76
2023/03/21 08:30:03;;;;;;;7.10;3.83;;;;;;;10.29;47.53;101137.72;4986830;28;20125;-76
2023/03/21 08:32:32;;;;;;;6.57;3.58;;;;;;;10.31;47.77;101152.16;5013077;28;20042;-76
2023/03/21 08:35:01;;;;;;;6.18;3.80;;;;;;;10.31;47.91;101146.69;5006402;28;20047;-75
2023/03/21 08:37:29;;;;;;;6.22;3.85;;;;;;;10.30;47.79;101140.34;5011172;28;20041;-75
2023/03/21 08:39:57;;;;;;;8.80;3.80;;;;;;;10.31;48.04;101143.94;5010099;28;20564;-73
2023/03/21 08:42:26;;;;;;;6.50;3.55;;;;;;;10.32;48.17;101153.91;4985485;28;20038;-74
2023/03/21 08:44:53;;;;;;;7.20;3.97;;;;;;;10.32;47.89;101152.00;4984737;28;20413;-76
2023/03/21 08:47:21;;;;;;;6.78;3.72;;;;;;;10.31;48.18;101153.03;4989905;28;20373;-76
2023/03/21 08:49:50;;;;;;;7.35;3.83;;;;;;;10.33;47.87;101145.53;4999439;28;20060;-76
2023/03/21 08:52:18;;;;;;;7.63;3.90;;;;;;;10.32;47.84;101156.63;4985825;28;20058;-75
2023/03/21 08:54:47;;;;;;;7.57;4.10;;;;;;;10.30;48.26;101140.34;4982098;28;20042;-73
2023/03/21 08:57:15;;;;;;;6.85;3.78;;;;;;;10.31;48.13;101141.22;5001509;28;20046;-74
2023/03/21 08:59:43;;;;;;;6.50;3.95;;;;;;;10.31;48.40;101138.47;5003168;28;20050;-73
2023/03/21 09:02:13;;;;;;;8.40;3.97;;;;;;;10.32;48.58;101138.31;5006195;28;20540;-72
2023/03/21 09:04:42;;;;;;;8.02;4.18;;;;;;;10.31;48.64;101138.47;5003832;28;20038;-74
2023/03/21 09:07:13;;;;;;;6.97;3.80;;;;;;;10.32;48.84;101134.75;4981989;28;20526;-76
2023/03/21 09:09:41;;;;;;;6.72;3.88;;;;;;;10.31;48.46;101127.53;4985794;28;20490;-74
2023/03/21 09:12:10;;;;;;;7.93;3.95;;;;;;;10.32;49.00;101132.00;5002494;28;20421;-73
2023/03/21 09:14:38;;;;;;;6.15;4.00;;;;;;;10.33;48.93;101139.19;5007055;28;20041;-74
2023/03/21 09:17:06;;;;;;;6.22;3.63;;;;;;;10.34;48.84;101136.34;4992088;28;20555;-76
2023/03/21 09:19:34;;;;;;;7.20;4.03;;;;;;;10.35;48.91;101129.00;4987223;28;20137;-76
2023/03/21 09:22:02;;;;;;;7.80;4.13;;;;;;;10.35;49.13;101126.25;5003081;28;20394;-77
2023/03/21 09:24:31;;;;;;;7.28;3.78;;;;;;;10.38;49.07;101128.75;4999984;28;20052;-76
2023/03/21 09:26:59;;;;;;;6.97;3.75;;;;;;;10.37;48.68;101130.63;5004366;28;20501;-78
2023/03/21 09:29:28;;;;;;;8.02;3.90;;;;;;;10.39;48.94;101133.22;5003704;28;20050;-76
2023/03/21 09:31:56;;;;;;;7.43;3.70;;;;;;;10.39;48.91;101131.38;5000936;28;20060;-76
2023/03/21 09:34:25;;;;;;;6.32;4.00;;;;;;;10.40;49.24;101127.63;5005194;28;20064;-76
2023/03/21 09:36:55;;;;;;;5.30;3.42;;;;;;;10.41;49.19;101129.34;5006968;28;20062;-76
2023/03/21 09:39:25;;;;;;;6.97;3.42;;;;;;;10.43;49.24;101135.56;5004872;28;20050;-76
2023/03/21 09:42:10;;;;;;;6.57;3.80;;;;;;;10.46;50.08;101137.19;5002101;28;20421;-76
2023/03/21 09:44:51;;;;;;;6.88;3.47;;;;;;;10.45;49.67;101133.59;5002856;28;20037;-75
2023/03/21 09:47:23;;;;;;;6.43;3.60;;;;;;;10.46;49.03;101129.00;5009318;28;20080;-75
2023/03/21 09:49:57;;;;;;;5.57;3.20;;;;;;;10.45;49.40;101136.31;5005591;28;20050;-73
2023/03/21 09:52:46;;;;;;;6.35;3.30;;;;;;;10.46;49.59;101127.13;5000853;28;20429;-74
2023/03/21 09:55:18;;;;;;;6.10;3.63;;;;;;;10.47;49.13;101125.25;5002492;28;20041;-71
2023/03/21 09:57:53;;;;;;;6.23;3.53;;;;;;;10.47;49.33;101131.59;5004064;28;20092;-72
2023/03/21 10:00:28;;;;;;;6.32;3.33;;;;;;;10.49;49.22;101124.13;4994324;28;20097;-72
2023/03/21 10:03:01;;;;;;;7.30;3.40;;;;;;;10.50;48.93;101125.00;4999726;28;20540;-72
2023/03/21 10:05:32;;;;;;;10.10;4.00;;;;;;;10.49;49.22;101124.13;5002685;28;20146;-72
2023/03/21 10:08:04;;;;;;;7.18;3.80;;;;;;;10.51;49.32;101124.88;5004488;28;20421;-73
2023/03/21 10:10:35;;;;;;;6.13;3.55;;;;;;;10.50;49.31;101111.31;5001767;28;20045;-72
2023/03/21 10:13:11;;;;;;;7.97;3.95;;;;;;;10.51;49.49;101113.91;5001584;28;21918;-72
2023/03/21 10:15:39;;;;;;;7.85;3.85;;;;;;;10.51;48.96;101119.38;4995818;28;20055;-72
2023/03/21 10:18:13;;;;;;;6.82;3.55;;;;;;;10.55;49.18;101114.59;4982818;28;20061;-72
2023/03/21 10:20:42;;;;;;;7.22;3.45;;;;;;;10.56;49.11;101110.84;4982465;28;20585;-71
2023/03/21 10:23:14;;;;;;;6.95;3.58;;;;;;;10.59;49.67;101107.84;4983892;28;20732;-73
2023/03/21 10:25:46;;;;;;;5.63;3.42;;;;;;;10.57;49.09;101102.47;4979065;28;20055;-73
2023/03/21 10:28:19;;;;;;;8.02;3.13;;;;;;;10.62;49.27;101103.97;4981991;28;20101;-73
2023/03/21 10:30:50;;;;;;;5.53;4.15;;;;;;;10.62;48.94;101093.03;4975957;28;20073;-73
2023/03/21 10:33:22;;;;;;;5.82;3.15;;;;;;;10.65;49.11;101092.78;4981432;28;20110;-73
2023/03/21 10:35:53;;;;;;;5.85;3.17;;;;;;;10.64;49.22;101080.09;4982944;28;20706;-74
2023/03/21 10:38:24;;;;;;;5.50;2.95;;;;;;;10.67;49.27;101068.88;4984301;28;20062;-74
2023/03/21 10:40:53;;;;;;;6.85;3.05;;;;;;;10.67;49.10;101064.25;4972902;28;20113;-73
2023/03/21 10:43:36;;;;;;;5.45;3.30;;;;;;;10.70;49.73;101061.28;4983022;28;20043;-73
2023/03/21 10:46:09;;;;;;;;;;;;;;;10.42;50.03;101059.97;4985824;28;20062;-73
2023/03/21 10:48:39;;;;;;;7.15;3.10;;;;;;;10.65;49.42;101046.25;4983710;28;19921;-73
2023/03/21 10:51:09;;;;;;;7.80;3.17;;;;;;;10.70;49.29;101046.72;4994349;28;20050;-73
2023/03/21 10:53:41;;;;;;;6.78;3.55;;;;;;;10.73;49.56;101046.47;4976161;28;20046;-72
2023/03/21 10:56:11;;;;;;;7.28;3.67;;;;;;;10.71;49.28;101041.13;4993175;28;20422;-72
2023/03/21 10:58:44;;;;;;;5.95;3.15;;;;;;;10.76;49.21;101044.31;5002580;28;20037;-72
2023/03/21 11:01:18;;;;;;;6.30;3.38;;;;;;;10.77;49.21;101036.97;5003346;28;20437;-73
2023/03/21 11:03:47;;;;;;;5.97;3.70;;;;;;;10.76;49.08;101037.97;5003301;28;20421;-73
2023/03/21 11:06:22;;;;;;;6.30;3.45;;;;;;;10.78;49.08;101023.16;5003944;28;20038;-73
2023/03/21 11:08:54;;;;;;;7.50;3.60;;;;;;;10.79;48.92;101026.78;4999883;28;20520;-73
2023/03/21 11:11:27;;;;;;;6.55;3.60;;;;;;;10.80;49.78;101026.66;5002460;28;20142;-73
2023/03/21 11:14:00;;;;;;;;;;;;;;;10.53;49.86;101032.59;5005481;28;20042;-73
2023/03/21 11:16:35;;;;;;;6.90;3.08;;;;;;;10.77;49.32;101031.50;4992812;28;20267;-72
2023/03/21 11:19:17;;;;;;;5.95;3.75;;;;;;;10.82;49.15;101021.00;4982785;28;20105;-72
2023/03/21 11:21:45;;;;;;;7.93;4.07;;;;;;;10.80;49.18;101009.34;4991564;28;20413;-73
2023/03/21 11:24:16;;;;;;;5.28;3.30;;;;;;;10.82;48.95;101012.81;4984517;28;20088;-72
2023/03/21 11:26:48;;;;;;;6.45;3.63;;;;;;;10.81;49.08;101030.25;4981456;28;20046;-73
2023/03/21 11:29:31;;;;;;;7.55;3.70;;;;;;;10.81;49.21;101009.19;4978546;28;20050;-73
2023/03/21 11:32:01;;;;;;;6.05;3.40;;;;;;;10.78;48.76;101020.44;4981683;28;20094;-73
2023/03/21 11:34:39;;;;;;;6.78;3.83;;;;;;;10.81;48.95;101022.88;4985266;28;20133;-72
2023/03/21 11:37:18;;;;;;;6.78;3.53;;;;;;;10.82;49.56;101010.94;5001594;28;20448;-73
2023/03/21 11:39:46;;;;;;;6.85;3.85;;;;;;;10.81;49.21;101016.56;4996041;28;20052;-73
2023/03/21 11:42:27;;;;;;;6.38;3.42;;;;;;;10.85;49.16;101012.56;4997539;28;20426;-73
2023/03/21 11:45:10;;;;;;;6.47;3.50;;;;;;;10.85;49.28;101012.56;5003366;28;20105;-73
2023/03/21 11:47:38;;;;;;;6.95;3.75;;;;;;;10.83;48.71;101009.06;4984996;28;20129;-73
2023/03/21 11:50:20;;;;;;;6.97;3.08;;;;;;;10.89;49.20;101008.56;4978328;28;20062;-72
2023/03/21 11:52:59;;;;;;;6.28;2.95;;;;;;;10.89;49.35;100998.47;5003737;28;20053;-72
2023/03/21 11:55:46;;;;;;;6.50;3.33;;;;;;;10.90;48.70;101002.94;4999676;28;20077;-73